Deputado Irapuan Pinheiro, Brazil
Current Conditions -  °F | °C
As of 3:00 PM on Friday 24 Oct 2014 (Local Time) from SBJU Reporting Station
Few Clouds Few Clouds  
Wind Chill: 99°   Ceiling: Unl
Heat Index: 99°   Visibility: 6mi
Dew Point: 59°   Wind: 13mph
Humidity: 27%   Direction: 210°SSW
Pressure: 29.88"   Gusts: NA
Location:  5.92°S, 39.27°W
Report Text: SBJU 241800Z 21011KT 9999 FEW022 37/15 Q1012
Loading
Personal Weather Stations






























Interactive Weather Map
Tropical Storm Tracking
New forecast layout! Learn more

10-Day Weather Forecast

Advertisements
Track Severe Weather on mobile